sensor_id;sensor_type;location;lat;lon;timestamp;P1;durP1;ratioP1;P2;durP2;ratioP2
74059;SDS011;62414;53.436;8.828;2022-12-20T00:01:27;11.90;;;6.32;;
74059;SDS011;62414;53.436;8.828;2022-12-20T00:03:54;12.43;;;5.90;;
74059;SDS011;62414;53.436;8.828;2022-12-20T00:06:22;12.82;;;6.30;;
74059;SDS011;62414;53.436;8.828;2022-12-20T00:08:51;13.20;;;6.25;;
74059;SDS011;62414;53.436;8.828;2022-12-20T00:11:17;16.23;;;6.30;;
74059;SDS011;62414;53.436;8.828;2022-12-20T00:13:44;14.07;;;6.17;;
74059;SDS011;62414;53.436;8.828;2022-12-20T00:16:11;11.35;;;6.18;;
74059;SDS011;62414;53.436;8.828;2022-12-20T00:18:39;11.25;;;5.57;;
74059;SDS011;62414;53.436;8.828;2022-12-20T00:21:06;12.13;;;5.78;;
74059;SDS011;62414;53.436;8.828;2022-12-20T00:23:33;11.83;;;6.00;;
74059;SDS011;62414;53.436;8.828;2022-12-20T00:26:00;12.80;;;5.93;;
74059;SDS011;62414;53.436;8.828;2022-12-20T00:28:26;12.38;;;6.00;;
74059;SDS011;62414;53.436;8.828;2022-12-20T00:30:52;12.73;;;5.70;;
74059;SDS011;62414;53.436;8.828;2022-12-20T00:33:18;12.23;;;5.72;;
74059;SDS011;62414;53.436;8.828;2022-12-20T00:35:44;11.83;;;5.73;;
74059;SDS011;62414;53.436;8.828;2022-12-20T00:38:10;13.88;;;5.50;;
74059;SDS011;62414;53.436;8.828;2022-12-20T00:40:35;11.77;;;5.90;;
74059;SDS011;62414;53.436;8.828;2022-12-20T00:43:01;11.90;;;5.53;;
74059;SDS011;62414;53.436;8.828;2022-12-20T00:45:26;10.13;;;5.23;;
74059;SDS011;62414;53.436;8.828;2022-12-20T00:47:52;11.50;;;5.20;;
74059;SDS011;62414;53.436;8.828;2022-12-20T00:50:17;11.17;;;5.57;;
74059;SDS011;62414;53.436;8.828;2022-12-20T00:52:45;13.70;;;5.65;;
74059;SDS011;62414;53.436;8.828;2022-12-20T00:55:10;10.70;;;5.00;;
74059;SDS011;62414;53.436;8.828;2022-12-20T00:57:36;12.03;;;5.10;;
74059;SDS011;62414;53.436;8.828;2022-12-20T01:00:01;11.33;;;5.40;;
74059;SDS011;62414;53.436;8.828;2022-12-20T01:02:27;11.07;;;5.63;;
74059;SDS011;62414;53.436;8.828;2022-12-20T01:04:53;11.93;;;5.50;;
74059;SDS011;62414;53.436;8.828;2022-12-20T01:07:18;11.70;;;5.32;;
74059;SDS011;62414;53.436;8.828;2022-12-20T01:09:45;14.20;;;5.00;;
74059;SDS011;62414;53.436;8.828;2022-12-20T01:12:11;12.18;;;5.32;;
74059;SDS011;62414;53.436;8.828;2022-12-20T01:14:37;11.27;;;5.10;;
74059;SDS011;62414;53.436;8.828;2022-12-20T01:17:02;10.63;;;5.30;;
74059;SDS011;62414;53.436;8.828;2022-12-20T01:19:28;10.23;;;4.83;;
74059;SDS011;62414;53.436;8.828;2022-12-20T01:21:53;11.07;;;5.23;;
74059;SDS011;62414;53.436;8.828;2022-12-20T01:24:19;13.10;;;5.00;;
74059;SDS011;62414;53.436;8.828;2022-12-20T01:26:46;11.27;;;5.45;;
74059;SDS011;62414;53.436;8.828;2022-12-20T01:29:12;10.07;;;5.27;;
74059;SDS011;62414;53.436;8.828;2022-12-20T01:31:38;11.23;;;5.45;;
74059;SDS011;62414;53.436;8.828;2022-12-20T01:34:03;10.02;;;5.25;;
74059;SDS011;62414;53.436;8.828;2022-12-20T01:36:29;12.73;;;5.30;;
74059;SDS011;62414;53.436;8.828;2022-12-20T01:38:56;11.88;;;5.15;;
74059;SDS011;62414;53.436;8.828;2022-12-20T01:41:23;11.20;;;5.15;;
74059;SDS011;62414;53.436;8.828;2022-12-20T01:43:51;10.77;;;5.23;;
74059;SDS011;62414;53.436;8.828;2022-12-20T01:46:18;12.40;;;5.70;;
74059;SDS011;62414;53.436;8.828;2022-12-20T01:48:47;10.93;;;5.22;;
74059;SDS011;62414;53.436;8.828;2022-12-20T01:51:15;10.93;;;5.00;;
74059;SDS011;62414;53.436;8.828;2022-12-20T01:53:41;10.45;;;5.10;;
74059;SDS011;62414;53.436;8.828;2022-12-20T01:56:07;10.17;;;5.33;;
74059;SDS011;62414;53.436;8.828;2022-12-20T01:58:34;10.25;;;5.00;;
74059;SDS011;62414;53.436;8.828;2022-12-20T02:01:04;9.93;;;5.03;;
74059;SDS011;62414;53.436;8.828;2022-12-20T02:03:30;10.75;;;4.60;;
74059;SDS011;62414;53.436;8.828;2022-12-20T02:05:56;10.15;;;5.18;;
74059;SDS011;62414;53.436;8.828;2022-12-20T02:08:22;11.50;;;4.87;;
74059;SDS011;62414;53.436;8.828;2022-12-20T02:10:53;9.10;;;4.70;;
74059;SDS011;62414;53.436;8.828;2022-12-20T02:13:33;10.48;;;4.70;;
74059;SDS011;62414;53.436;8.828;2022-12-20T02:16:07;9.23;;;5.00;;
74059;SDS011;62414;53.436;8.828;2022-12-20T02:18:37;11.15;;;5.20;;
74059;SDS011;62414;53.436;8.828;2022-12-20T02:21:20;10.07;;;4.80;;
74059;SDS011;62414;53.436;8.828;2022-12-20T02:23:59;9.97;;;4.57;;
74059;SDS011;62414;53.436;8.828;2022-12-20T02:26:43;10.23;;;5.03;;
74059;SDS011;62414;53.436;8.828;2022-12-20T02:29:27;10.20;;;4.80;;
74059;SDS011;62414;53.436;8.828;2022-12-20T02:32:01;9.93;;;4.80;;
74059;SDS011;62414;53.436;8.828;2022-12-20T02:34:32;8.98;;;4.40;;
74059;SDS011;62414;53.436;8.828;2022-12-20T02:37:00;10.27;;;5.03;;
74059;SDS011;62414;53.436;8.828;2022-12-20T02:39:27;8.88;;;4.40;;
74059;SDS011;62414;53.436;8.828;2022-12-20T02:41:54;8.80;;;4.50;;
74059;SDS011;62414;53.436;8.828;2022-12-20T02:44:23;9.20;;;4.70;;
74059;SDS011;62414;53.436;8.828;2022-12-20T02:46:52;12.10;;;5.13;;
74059;SDS011;62414;53.436;8.828;2022-12-20T02:49:20;12.07;;;4.57;;
74059;SDS011;62414;53.436;8.828;2022-12-20T02:51:50;9.73;;;4.63;;
74059;SDS011;62414;53.436;8.828;2022-12-20T02:54:19;11.02;;;4.63;;
74059;SDS011;62414;53.436;8.828;2022-12-20T02:56:49;10.60;;;4.50;;
74059;SDS011;62414;53.436;8.828;2022-12-20T02:59:18;9.82;;;4.65;;
74059;SDS011;62414;53.436;8.828;2022-12-20T03:01:47;9.35;;;4.20;;
74059;SDS011;62414;53.436;8.828;2022-12-20T03:04:15;9.10;;;3.97;;
74059;SDS011;62414;53.436;8.828;2022-12-20T03:06:55;11.38;;;4.70;;
74059;SDS011;62414;53.436;8.828;2022-12-20T03:09:21;8.50;;;4.30;;
74059;SDS011;62414;53.436;8.828;2022-12-20T03:11:47;9.77;;;4.47;;
74059;SDS011;62414;53.436;8.828;2022-12-20T03:14:13;9.97;;;4.23;;
74059;SDS011;62414;53.436;8.828;2022-12-20T03:16:39;9.55;;;4.40;;
74059;SDS011;62414;53.436;8.828;2022-12-20T03:19:05;9.98;;;4.50;;
74059;SDS011;62414;53.436;8.828;2022-12-20T03:21:31;10.07;;;4.20;;
74059;SDS011;62414;53.436;8.828;2022-12-20T03:23:57;14.83;;;4.37;;
74059;SDS011;62414;53.436;8.828;2022-12-20T03:26:23;9.43;;;4.07;;
74059;SDS011;62414;53.436;8.828;2022-12-20T03:28:53;10.27;;;4.32;;
74059;SDS011;62414;53.436;8.828;2022-12-20T03:31:21;8.40;;;4.20;;
74059;SDS011;62414;53.436;8.828;2022-12-20T03:33:50;9.30;;;4.15;;
74059;SDS011;62414;53.436;8.828;2022-12-20T03:36:16;8.70;;;4.33;;
74059;SDS011;62414;53.436;8.828;2022-12-20T03:38:41;8.97;;;4.53;;
74059;SDS011;62414;53.436;8.828;2022-12-20T03:41:08;11.35;;;4.40;;
74059;SDS011;62414;53.436;8.828;2022-12-20T03:43:34;8.32;;;4.00;;
74059;SDS011;62414;53.436;8.828;2022-12-20T03:45:59;9.40;;;3.90;;
74059;SDS011;62414;53.436;8.828;2022-12-20T03:48:28;10.65;;;4.60;;
74059;SDS011;62414;53.436;8.828;2022-12-20T03:50:53;8.80;;;4.43;;
74059;SDS011;62414;53.436;8.828;2022-12-20T03:53:19;9.10;;;4.00;;
74059;SDS011;62414;53.436;8.828;2022-12-20T03:55:45;8.25;;;4.40;;
74059;SDS011;62414;53.436;8.828;2022-12-20T03:58:11;9.77;;;4.10;;
74059;SDS011;62414;53.436;8.828;2022-12-20T04:00:37;10.50;;;4.32;;
74059;SDS011;62414;53.436;8.828;2022-12-20T04:03:26;8.98;;;4.28;;
74059;SDS011;62414;53.436;8.828;2022-12-20T04:05:51;11.27;;;4.50;;
74059;SDS011;62414;53.436;8.828;2022-12-20T04:08:17;10.03;;;4.70;;
74059;SDS011;62414;53.436;8.828;2022-12-20T04:10:42;10.40;;;4.50;;
74059;SDS011;62414;53.436;8.828;2022-12-20T04:13:08;10.93;;;4.95;;
74059;SDS011;62414;53.436;8.828;2022-12-20T04:15:35;10.07;;;4.73;;
74059;SDS011;62414;53.436;8.828;2022-12-20T04:18:00;9.65;;;4.38;;
74059;SDS011;62414;53.436;8.828;2022-12-20T04:20:26;10.30;;;4.80;;
74059;SDS011;62414;53.436;8.828;2022-12-20T04:23:04;11.93;;;5.18;;
74059;SDS011;62414;53.436;8.828;2022-12-20T04:25:29;11.03;;;5.30;;
74059;SDS011;62414;53.436;8.828;2022-12-20T04:27:55;12.63;;;5.22;;
74059;SDS011;62414;53.436;8.828;2022-12-20T04:30:20;9.80;;;5.33;;
74059;SDS011;62414;53.436;8.828;2022-12-20T04:32:48;11.50;;;5.20;;
74059;SDS011;62414;53.436;8.828;2022-12-20T04:35:13;10.40;;;5.40;;
74059;SDS011;62414;53.436;8.828;2022-12-20T04:37:41;13.98;;;5.90;;
74059;SDS011;62414;53.436;8.828;2022-12-20T04:40:07;13.90;;;5.60;;
74059;SDS011;62414;53.436;8.828;2022-12-20T04:42:42;11.98;;;5.82;;
74059;SDS011;62414;53.436;8.828;2022-12-20T04:45:10;11.13;;;5.40;;
74059;SDS011;62414;53.436;8.828;2022-12-20T04:47:36;10.27;;;5.30;;
74059;SDS011;62414;53.436;8.828;2022-12-20T04:50:05;10.55;;;5.53;;
74059;SDS011;62414;53.436;8.828;2022-12-20T04:52:31;10.63;;;5.30;;
74059;SDS011;62414;53.436;8.828;2022-12-20T04:54:57;12.32;;;5.30;;
74059;SDS011;62414;53.436;8.828;2022-12-20T04:57:27;12.15;;;5.32;;
74059;SDS011;62414;53.436;8.828;2022-12-20T04:59:52;10.30;;;5.30;;
74059;SDS011;62414;53.436;8.828;2022-12-20T05:02:18;10.23;;;5.27;;
74059;SDS011;62414;53.436;8.828;2022-12-20T05:04:48;10.88;;;5.55;;
74059;SDS011;62414;53.436;8.828;2022-12-20T05:07:16;12.20;;;5.43;;
74059;SDS011;62414;53.436;8.828;2022-12-20T05:09:48;13.88;;;6.03;;
74059;SDS011;62414;53.436;8.828;2022-12-20T05:12:14;11.33;;;6.03;;
74059;SDS011;62414;53.436;8.828;2022-12-20T05:14:39;12.83;;;5.97;;
74059;SDS011;62414;53.436;8.828;2022-12-20T05:17:05;10.50;;;5.28;;
74059;SDS011;62414;53.436;8.828;2022-12-20T05:19:30;12.50;;;5.40;;
74059;SDS011;62414;53.436;8.828;2022-12-20T05:21:56;12.30;;;5.67;;
74059;SDS011;62414;53.436;8.828;2022-12-20T05:24:22;10.18;;;5.32;;
74059;SDS011;62414;53.436;8.828;2022-12-20T05:26:57;13.45;;;5.60;;
74059;SDS011;62414;53.436;8.828;2022-12-20T05:29:23;10.83;;;5.40;;
74059;SDS011;62414;53.436;8.828;2022-12-20T05:31:48;11.27;;;5.57;;
74059;SDS011;62414;53.436;8.828;2022-12-20T05:34:14;10.32;;;5.15;;
74059;SDS011;62414;53.436;8.828;2022-12-20T05:36:44;12.23;;;5.37;;
74059;SDS011;62414;53.436;8.828;2022-12-20T05:39:10;11.25;;;5.43;;
74059;SDS011;62414;53.436;8.828;2022-12-20T05:41:40;13.33;;;5.43;;
74059;SDS011;62414;53.436;8.828;2022-12-20T05:44:06;11.43;;;5.50;;
74059;SDS011;62414;53.436;8.828;2022-12-20T05:46:34;11.57;;;5.75;;
74059;SDS011;62414;53.436;8.828;2022-12-20T05:49:06;12.10;;;5.63;;
74059;SDS011;62414;53.436;8.828;2022-12-20T05:51:32;12.63;;;6.13;;
74059;SDS011;62414;53.436;8.828;2022-12-20T05:54:04;14.07;;;5.90;;
74059;SDS011;62414;53.436;8.828;2022-12-20T05:56:44;14.20;;;6.50;;
74059;SDS011;62414;53.436;8.828;2022-12-20T05:59:11;13.13;;;5.93;;
74059;SDS011;62414;53.436;8.828;2022-12-20T06:01:37;13.98;;;6.57;;
74059;SDS011;62414;53.436;8.828;2022-12-20T06:04:03;14.05;;;6.53;;
74059;SDS011;62414;53.436;8.828;2022-12-20T06:06:29;12.90;;;6.10;;
74059;SDS011;62414;53.436;8.828;2022-12-20T06:08:55;13.20;;;6.43;;
74059;SDS011;62414;53.436;8.828;2022-12-20T06:11:44;12.50;;;5.90;;
74059;SDS011;62414;53.436;8.828;2022-12-20T06:14:12;12.95;;;6.10;;
74059;SDS011;62414;53.436;8.828;2022-12-20T06:16:42;14.88;;;6.03;;
74059;SDS011;62414;53.436;8.828;2022-12-20T06:19:09;14.60;;;6.17;;
74059;SDS011;62414;53.436;8.828;2022-12-20T06:21:35;13.50;;;6.47;;
74059;SDS011;62414;53.436;8.828;2022-12-20T06:24:01;13.63;;;6.32;;
74059;SDS011;62414;53.436;8.828;2022-12-20T06:26:27;14.50;;;6.60;;
74059;SDS011;62414;53.436;8.828;2022-12-20T06:28:54;14.17;;;6.97;;
74059;SDS011;62414;53.436;8.828;2022-12-20T06:31:24;13.70;;;6.70;;
74059;SDS011;62414;53.436;8.828;2022-12-20T06:33:52;14.98;;;7.45;;
74059;SDS011;62414;53.436;8.828;2022-12-20T06:36:20;15.43;;;7.73;;
74059;SDS011;62414;53.436;8.828;2022-12-20T06:38:45;16.90;;;8.70;;
74059;SDS011;62414;53.436;8.828;2022-12-20T06:41:13;17.70;;;8.93;;
74059;SDS011;62414;53.436;8.828;2022-12-20T06:43:38;15.57;;;8.10;;
74059;SDS011;62414;53.436;8.828;2022-12-20T06:46:05;15.95;;;8.05;;
74059;SDS011;62414;53.436;8.828;2022-12-20T06:48:31;15.67;;;8.60;;
74059;SDS011;62414;53.436;8.828;2022-12-20T06:50:57;15.05;;;8.13;;
74059;SDS011;62414;53.436;8.828;2022-12-20T06:53:24;15.68;;;8.48;;
74059;SDS011;62414;53.436;8.828;2022-12-20T06:55:50;15.80;;;8.03;;
74059;SDS011;62414;53.436;8.828;2022-12-20T06:58:16;15.40;;;7.82;;
74059;SDS011;62414;53.436;8.828;2022-12-20T07:00:44;14.85;;;7.78;;
74059;SDS011;62414;53.436;8.828;2022-12-20T07:03:11;14.60;;;7.60;;
74059;SDS011;62414;53.436;8.828;2022-12-20T07:05:37;16.05;;;7.80;;
74059;SDS011;62414;53.436;8.828;2022-12-20T07:08:03;17.33;;;7.93;;
74059;SDS011;62414;53.436;8.828;2022-12-20T07:10:29;16.08;;;7.35;;
74059;SDS011;62414;53.436;8.828;2022-12-20T07:12:55;12.50;;;6.53;;
74059;SDS011;62414;53.436;8.828;2022-12-20T07:15:20;13.43;;;7.00;;
74059;SDS011;62414;53.436;8.828;2022-12-20T07:17:46;13.00;;;7.00;;
74059;SDS011;62414;53.436;8.828;2022-12-20T07:20:13;13.13;;;6.33;;
74059;SDS011;62414;53.436;8.828;2022-12-20T07:22:38;13.18;;;6.90;;
74059;SDS011;62414;53.436;8.828;2022-12-20T07:25:04;13.60;;;6.43;;
74059;SDS011;62414;53.436;8.828;2022-12-20T07:27:30;12.10;;;6.15;;
74059;SDS011;62414;53.436;8.828;2022-12-20T07:29:55;12.87;;;5.70;;
74059;SDS011;62414;53.436;8.828;2022-12-20T07:32:20;12.23;;;5.70;;
74059;SDS011;62414;53.436;8.828;2022-12-20T07:34:46;15.67;;;6.00;;
74059;SDS011;62414;53.436;8.828;2022-12-20T07:37:13;15.27;;;5.90;;
74059;SDS011;62414;53.436;8.828;2022-12-20T07:39:38;12.57;;;6.03;;
74059;SDS011;62414;53.436;8.828;2022-12-20T07:42:04;11.57;;;5.70;;
74059;SDS011;62414;53.436;8.828;2022-12-20T07:44:40;13.30;;;6.22;;
74059;SDS011;62414;53.436;8.828;2022-12-20T07:47:05;14.37;;;6.07;;
74059;SDS011;62414;53.436;8.828;2022-12-20T07:49:31;15.05;;;6.72;;
74059;SDS011;62414;53.436;8.828;2022-12-20T07:51:56;12.93;;;6.17;;
74059;SDS011;62414;53.436;8.828;2022-12-20T07:54:26;13.10;;;6.22;;
74059;SDS011;62414;53.436;8.828;2022-12-20T07:56:55;12.07;;;6.00;;
74059;SDS011;62414;53.436;8.828;2022-12-20T07:59:26;12.80;;;6.33;;
74059;SDS011;62414;53.436;8.828;2022-12-20T08:01:54;14.98;;;6.90;;
74059;SDS011;62414;53.436;8.828;2022-12-20T08:04:22;14.80;;;7.20;;
74059;SDS011;62414;53.436;8.828;2022-12-20T08:06:51;12.13;;;6.30;;
74059;SDS011;62414;53.436;8.828;2022-12-20T08:09:19;12.20;;;5.70;;
74059;SDS011;62414;53.436;8.828;2022-12-20T08:11:46;12.70;;;6.03;;
74059;SDS011;62414;53.436;8.828;2022-12-20T08:14:12;13.48;;;6.05;;
74059;SDS011;62414;53.436;8.828;2022-12-20T08:16:39;12.90;;;6.60;;
74059;SDS011;62414;53.436;8.828;2022-12-20T08:19:04;13.18;;;6.43;;
74059;SDS011;62414;53.436;8.828;2022-12-20T08:21:30;14.90;;;7.00;;
74059;SDS011;62414;53.436;8.828;2022-12-20T08:23:55;16.23;;;6.53;;
74059;SDS011;62414;53.436;8.828;2022-12-20T08:26:21;15.23;;;6.20;;
74059;SDS011;62414;53.436;8.828;2022-12-20T08:28:48;15.18;;;6.20;;
74059;SDS011;62414;53.436;8.828;2022-12-20T08:31:13;10.63;;;5.40;;
74059;SDS011;62414;53.436;8.828;2022-12-20T08:33:39;13.95;;;6.30;;
74059;SDS011;62414;53.436;8.828;2022-12-20T08:36:06;11.02;;;5.97;;
74059;SDS011;62414;53.436;8.828;2022-12-20T08:38:33;13.43;;;6.40;;
74059;SDS011;62414;53.436;8.828;2022-12-20T08:41:00;12.30;;;5.80;;
74059;SDS011;62414;53.436;8.828;2022-12-20T08:43:27;13.35;;;6.40;;
74059;SDS011;62414;53.436;8.828;2022-12-20T08:45:54;12.87;;;6.40;;
74059;SDS011;62414;53.436;8.828;2022-12-20T08:48:19;14.55;;;6.32;;
74059;SDS011;62414;53.436;8.828;2022-12-20T08:50:45;15.65;;;6.68;;
74059;SDS011;62414;53.436;8.828;2022-12-20T08:53:11;13.97;;;6.57;;
74059;SDS011;62414;53.436;8.828;2022-12-20T08:55:36;14.00;;;6.63;;
74059;SDS011;62414;53.436;8.828;2022-12-20T08:58:02;16.80;;;7.73;;
74059;SDS011;62414;53.436;8.828;2022-12-20T09:00:27;18.80;;;8.57;;
74059;SDS011;62414;53.436;8.828;2022-12-20T09:02:54;18.57;;;7.90;;
74059;SDS011;62414;53.436;8.828;2022-12-20T09:05:20;21.67;;;8.95;;
74059;SDS011;62414;53.436;8.828;2022-12-20T09:07:45;20.07;;;8.77;;
74059;SDS011;62414;53.436;8.828;2022-12-20T09:10:10;23.17;;;9.50;;
74059;SDS011;62414;53.436;8.828;2022-12-20T09:12:36;19.53;;;9.17;;
74059;SDS011;62414;53.436;8.828;2022-12-20T09:15:02;21.17;;;8.60;;
74059;SDS011;62414;53.436;8.828;2022-12-20T09:17:27;22.57;;;9.57;;
74059;SDS011;62414;53.436;8.828;2022-12-20T09:19:54;20.38;;;9.27;;
74059;SDS011;62414;53.436;8.828;2022-12-20T09:22:20;22.07;;;9.47;;
74059;SDS011;62414;53.436;8.828;2022-12-20T09:24:45;20.58;;;10.07;;
74059;SDS011;62414;53.436;8.828;2022-12-20T09:27:11;22.50;;;8.80;;
74059;SDS011;62414;53.436;8.828;2022-12-20T09:29:36;19.77;;;9.47;;
74059;SDS011;62414;53.436;8.828;2022-12-20T09:32:02;23.23;;;9.70;;
74059;SDS011;62414;53.436;8.828;2022-12-20T09:34:27;22.70;;;9.67;;
74059;SDS011;62414;53.436;8.828;2022-12-20T09:36:54;18.60;;;9.43;;
74059;SDS011;62414;53.436;8.828;2022-12-20T09:39:19;21.27;;;9.38;;
74059;SDS011;62414;53.436;8.828;2022-12-20T09:41:45;22.97;;;9.20;;
74059;SDS011;62414;53.436;8.828;2022-12-20T09:44:11;19.80;;;10.32;;
74059;SDS011;62414;53.436;8.828;2022-12-20T09:46:40;19.05;;;9.45;;
74059;SDS011;62414;53.436;8.828;2022-12-20T09:49:07;21.77;;;9.90;;
74059;SDS011;62414;53.436;8.828;2022-12-20T09:51:42;22.85;;;9.32;;
74059;SDS011;62414;53.436;8.828;2022-12-20T09:54:26;18.48;;;8.82;;
74059;SDS011;62414;53.436;8.828;2022-12-20T09:57:03;17.30;;;8.95;;
74059;SDS011;62414;53.436;8.828;2022-12-20T09:59:37;19.10;;;8.55;;
74059;SDS011;62414;53.436;8.828;2022-12-20T10:02:06;17.30;;;8.17;;
74059;SDS011;62414;53.436;8.828;2022-12-20T10:04:33;19.33;;;9.50;;
74059;SDS011;62414;53.436;8.828;2022-12-20T10:07:04;19.08;;;9.20;;
74059;SDS011;62414;53.436;8.828;2022-12-20T10:09:47;17.63;;;8.45;;
74059;SDS011;62414;53.436;8.828;2022-12-20T10:12:27;16.58;;;7.88;;
74059;SDS011;62414;53.436;8.828;2022-12-20T10:15:06;19.93;;;9.30;;
74059;SDS011;62414;53.436;8.828;2022-12-20T10:17:41;17.77;;;8.90;;
74059;SDS011;62414;53.436;8.828;2022-12-20T10:20:21;17.23;;;7.43;;
74059;SDS011;62414;53.436;8.828;2022-12-20T10:22:58;15.48;;;7.60;;
74059;SDS011;62414;53.436;8.828;2022-12-20T10:25:28;13.98;;;7.65;;
74059;SDS011;62414;53.436;8.828;2022-12-20T10:27:56;14.27;;;7.40;;
74059;SDS011;62414;53.436;8.828;2022-12-20T10:30:25;12.10;;;6.75;;
74059;SDS011;62414;53.436;8.828;2022-12-20T10:32:56;14.57;;;6.80;;
74059;SDS011;62414;53.436;8.828;2022-12-20T10:35:24;11.60;;;5.88;;
74059;SDS011;62414;53.436;8.828;2022-12-20T10:37:59;10.32;;;5.32;;
74059;SDS011;62414;53.436;8.828;2022-12-20T10:40:27;10.77;;;5.70;;
74059;SDS011;62414;53.436;8.828;2022-12-20T10:42:54;11.85;;;5.28;;
74059;SDS011;62414;53.436;8.828;2022-12-20T10:45:25;9.15;;;5.10;;
74059;SDS011;62414;53.436;8.828;2022-12-20T10:47:57;11.15;;;4.93;;
74059;SDS011;62414;53.436;8.828;2022-12-20T10:50:24;10.18;;;4.88;;
74059;SDS011;62414;53.436;8.828;2022-12-20T10:53:03;9.40;;;4.70;;
74059;SDS011;62414;53.436;8.828;2022-12-20T10:55:43;8.18;;;4.07;;
74059;SDS011;62414;53.436;8.828;2022-12-20T10:58:11;10.00;;;4.30;;
74059;SDS011;62414;53.436;8.828;2022-12-20T11:00:39;11.32;;;4.35;;
74059;SDS011;62414;53.436;8.828;2022-12-20T11:03:08;11.05;;;4.05;;
74059;SDS011;62414;53.436;8.828;2022-12-20T11:05:36;8.97;;;3.90;;
74059;SDS011;62414;53.436;8.828;2022-12-20T11:08:08;8.73;;;4.40;;
74059;SDS011;62414;53.436;8.828;2022-12-20T11:10:38;9.73;;;4.25;;
74059;SDS011;62414;53.436;8.828;2022-12-20T11:13:04;7.88;;;3.97;;
74059;SDS011;62414;53.436;8.828;2022-12-20T11:15:30;11.67;;;4.10;;
74059;SDS011;62414;53.436;8.828;2022-12-20T11:17:58;7.93;;;3.70;;
74059;SDS011;62414;53.436;8.828;2022-12-20T11:20:29;8.33;;;3.80;;
74059;SDS011;62414;53.436;8.828;2022-12-20T11:23:08;9.32;;;3.97;;
74059;SDS011;62414;53.436;8.828;2022-12-20T11:25:46;9.23;;;3.92;;
74059;SDS011;62414;53.436;8.828;2022-12-20T11:28:28;9.52;;;3.75;;
74059;SDS011;62414;53.436;8.828;2022-12-20T11:31:03;8.82;;;3.70;;
74059;SDS011;62414;53.436;8.828;2022-12-20T11:33:40;8.20;;;3.30;;
74059;SDS011;62414;53.436;8.828;2022-12-20T11:36:17;9.38;;;3.70;;
74059;SDS011;62414;53.436;8.828;2022-12-20T11:38:51;7.93;;;3.78;;
74059;SDS011;62414;53.436;8.828;2022-12-20T11:41:25;8.88;;;3.67;;
74059;SDS011;62414;53.436;8.828;2022-12-20T11:44:08;7.78;;;3.63;;
74059;SDS011;62414;53.436;8.828;2022-12-20T11:46:56;9.87;;;3.60;;
74059;SDS011;62414;53.436;8.828;2022-12-20T11:49:45;8.98;;;3.95;;
74059;SDS011;62414;53.436;8.828;2022-12-20T11:52:17;9.07;;;3.92;;
74059;SDS011;62414;53.436;8.828;2022-12-20T11:54:56;8.32;;;4.03;;
74059;SDS011;62414;53.436;8.828;2022-12-20T11:57:28;9.15;;;3.95;;
74059;SDS011;62414;53.436;8.828;2022-12-20T11:59:59;10.10;;;4.63;;
74059;SDS011;62414;53.436;8.828;2022-12-20T12:02:26;9.30;;;4.15;;
74059;SDS011;62414;53.436;8.828;2022-12-20T12:04:58;10.65;;;4.57;;
74059;SDS011;62414;53.436;8.828;2022-12-20T12:07:28;9.07;;;4.40;;
74059;SDS011;62414;53.436;8.828;2022-12-20T12:09:57;10.85;;;4.70;;
74059;SDS011;62414;53.436;8.828;2022-12-20T12:12:27;12.50;;;6.63;;
74059;SDS011;62414;53.436;8.828;2022-12-20T12:14:57;14.77;;;6.95;;
74059;SDS011;62414;53.436;8.828;2022-12-20T12:17:25;10.88;;;5.50;;
74059;SDS011;62414;53.436;8.828;2022-12-20T12:19:59;10.75;;;5.25;;
74059;SDS011;62414;53.436;8.828;2022-12-20T12:22:33;15.10;;;8.50;;
74059;SDS011;62414;53.436;8.828;2022-12-20T12:25:03;18.03;;;9.30;;
74059;SDS011;62414;53.436;8.828;2022-12-20T12:27:35;13.77;;;6.30;;
74059;SDS011;62414;53.436;8.828;2022-12-20T12:30:01;11.95;;;6.03;;
74059;SDS011;62414;53.436;8.828;2022-12-20T12:32:27;11.03;;;5.40;;
74059;SDS011;62414;53.436;8.828;2022-12-20T12:35:11;11.23;;;5.43;;
74059;SDS011;62414;53.436;8.828;2022-12-20T12:37:53;20.85;;;9.73;;
74059;SDS011;62414;53.436;8.828;2022-12-20T12:40:36;14.00;;;6.50;;
74059;SDS011;62414;53.436;8.828;2022-12-20T12:43:31;12.07;;;6.70;;
74059;SDS011;62414;53.436;8.828;2022-12-20T12:46:08;14.52;;;6.97;;
74059;SDS011;62414;53.436;8.828;2022-12-20T12:48:38;14.65;;;7.93;;
74059;SDS011;62414;53.436;8.828;2022-12-20T12:51:06;15.00;;;8.02;;
74059;SDS011;62414;53.436;8.828;2022-12-20T12:53:34;12.40;;;6.30;;
74059;SDS011;62414;53.436;8.828;2022-12-20T12:59:18;14.23;;;7.03;;
74059;SDS011;62414;53.436;8.828;2022-12-20T13:05:31;12.90;;;6.30;;
74059;SDS011;62414;53.436;8.828;2022-12-20T13:07:59;13.53;;;6.70;;
74059;SDS011;62414;53.436;8.828;2022-12-20T13:13:23;13.13;;;6.63;;
74059;SDS011;62414;53.436;8.828;2022-12-20T13:15:50;15.07;;;7.37;;
74059;SDS011;62414;53.436;8.828;2022-12-20T13:18:21;14.63;;;7.03;;
74059;SDS011;62414;53.436;8.828;2022-12-20T13:23:46;12.85;;;5.90;;
74059;SDS011;62414;53.436;8.828;2022-12-20T13:29:21;15.27;;;7.37;;
74059;SDS011;62414;53.436;8.828;2022-12-20T13:31:48;13.63;;;7.18;;
74059;SDS011;62414;53.436;8.828;2022-12-20T13:37:02;16.95;;;7.47;;
74059;SDS011;62414;53.436;8.828;2022-12-20T13:39:33;17.25;;;8.20;;
74059;SDS011;62414;53.436;8.828;2022-12-20T13:42:12;15.50;;;7.80;;
74059;SDS011;62414;53.436;8.828;2022-12-20T13:44:44;15.18;;;7.88;;
74059;SDS011;62414;53.436;8.828;2022-12-20T13:47:15;16.65;;;7.40;;
74059;SDS011;62414;53.436;8.828;2022-12-20T13:49:52;14.90;;;7.88;;
74059;SDS011;62414;53.436;8.828;2022-12-20T13:52:23;20.80;;;9.27;;
74059;SDS011;62414;53.436;8.828;2022-12-20T13:54:53;17.65;;;8.82;;
74059;SDS011;62414;53.436;8.828;2022-12-20T13:57:23;17.58;;;9.00;;
74059;SDS011;62414;53.436;8.828;2022-12-20T13:59:54;18.95;;;8.55;;
74059;SDS011;62414;53.436;8.828;2022-12-20T14:02:22;16.83;;;8.27;;
74059;SDS011;62414;53.436;8.828;2022-12-20T14:04:53;15.73;;;7.85;;
74059;SDS011;62414;53.436;8.828;2022-12-20T14:07:22;16.45;;;8.48;;
74059;SDS011;62414;53.436;8.828;2022-12-20T14:09:53;19.00;;;8.77;;
74059;SDS011;62414;53.436;8.828;2022-12-20T14:12:20;18.15;;;8.52;;
74059;SDS011;62414;53.436;8.828;2022-12-20T14:14:46;16.53;;;8.10;;
74059;SDS011;62414;53.436;8.828;2022-12-20T14:17:15;20.02;;;8.70;;
74059;SDS011;62414;53.436;8.828;2022-12-20T14:19:41;18.02;;;8.27;;
74059;SDS011;62414;53.436;8.828;2022-12-20T14:22:07;21.40;;;8.73;;
74059;SDS011;62414;53.436;8.828;2022-12-20T14:24:34;17.55;;;8.85;;
74059;SDS011;62414;53.436;8.828;2022-12-20T14:27:00;17.70;;;9.25;;
74059;SDS011;62414;53.436;8.828;2022-12-20T14:29:26;21.60;;;9.27;;
74059;SDS011;62414;53.436;8.828;2022-12-20T14:31:54;18.55;;;9.27;;
74059;SDS011;62414;53.436;8.828;2022-12-20T14:34:21;17.98;;;9.50;;
74059;SDS011;62414;53.436;8.828;2022-12-20T14:36:49;18.47;;;8.90;;
74059;SDS011;62414;53.436;8.828;2022-12-20T14:39:22;18.73;;;9.00;;
74059;SDS011;62414;53.436;8.828;2022-12-20T14:41:53;16.42;;;7.95;;
74059;SDS011;62414;53.436;8.828;2022-12-20T14:44:20;20.63;;;8.80;;
74059;SDS011;62414;53.436;8.828;2022-12-20T14:46:47;21.95;;;9.98;;
74059;SDS011;62414;53.436;8.828;2022-12-20T14:49:17;21.77;;;9.73;;
74059;SDS011;62414;53.436;8.828;2022-12-20T14:51:48;19.17;;;9.38;;
74059;SDS011;62414;53.436;8.828;2022-12-20T14:54:15;20.63;;;9.48;;
74059;SDS011;62414;53.436;8.828;2022-12-20T14:56:43;21.20;;;10.63;;
74059;SDS011;62414;53.436;8.828;2022-12-20T14:59:12;22.23;;;10.88;;
74059;SDS011;62414;53.436;8.828;2022-12-20T15:01:38;22.88;;;10.70;;
74059;SDS011;62414;53.436;8.828;2022-12-20T15:04:17;24.17;;;10.30;;